Latest Weather Observations for Narrabri

IDN60801

Issued at 4:03 pm EST Sunday 2 August 2015 (issued every 30 minutes, with the page automatically refreshed every 10 minutes)

About weather observations | Map of weather stations | Latest weather observations for NSW | Other Formats
Station Details ID: 054038 Name: NARRABRI AIRPORT AWS Lat: -30.32 Lon: 149.83 Height: 229.02 m
Data from the previous 72 hours. | See also: Recent months at Narrabri
Date/Time
EST
Temp
°C
App
Temp
°C
Dew
Point
Rel
Hum
%
Delta-T
°C
Wind Press
QNH
hPa
Press
MSL
hPa
Rain
since 9 am
mm
Dir
 
Spd
km/h
Gust
km/h
Spd
kts
Gust
kts
02/04:00pm 22.2 16.6 8.7 42 7.2 N 28 35 15 19 1015.6 1015.6 0.0
02/03:30pm 22.7 17.6 9.1 42 7.4 N 26 35 14 19 1015.6 1015.6 0.0
02/03:00pm 22.8 16.4 9.2 42 7.4 N 33 41 18 22 1015.6 1015.6 0.0
02/02:30pm 23.2 16.9 8.9 40 7.7 N 32 46 17 25 1015.8 1015.8 0.0
02/02:00pm 23.2 16.9 8.9 40 7.7 N 32 43 17 23 1016.1 1016.2 0.0
02/01:30pm 23.1 16.5 8.4 39 7.9 N 33 43 18 23 1016.7 1016.7 0.0
02/01:00pm 23.3 17.2 8.2 38 8.1 N 30 39 16 21 1017.2 1017.2 0.0
02/12:30pm 22.6 16.0 8.7 41 7.5 N 33 44 18 24 1017.9 1017.9 0.0
02/12:00pm 22.3 15.4 7.3 38 7.8 N 33 46 18 25 1018.6 1018.6 0.0
02/11:30am 22.1 15.3 7.1 38 7.8 N 32 41 17 22 1019.1 1019.1 0.0
02/11:00am 21.4 14.2 6.1 37 7.8 N 33 43 18 23 1019.6 1019.6 0.0
02/10:30am 20.6 13.4 5.8 38 7.4 N 33 46 18 25 1019.9 1020.0 0.0
02/10:00am 20.5 12.9 5.7 38 7.4 N 35 50 19 27 1019.9 1020.0 0.0
02/09:30am 19.8 12.1 5.5 39 7.1 N 35 48 19 26 1019.8 1019.9 0.0
02/09:00am 19.2 11.7 4.6 38 7.1 N 33 52 18 28 1019.6 1019.6 0.0
02/08:30am 18.4 10.9 4.2 39 6.8 N 33 43 18 23 1019.6 1019.6 0.0
02/08:00am 17.7 10.7 3.9 40 6.5 N 30 39 16 21 1019.5 1019.5 0.0
02/07:30am 16.5 9.7 3.2 41 6.2 NNE 28 37 15 20 1019.1 1019.1 0.0
02/07:00am 16.4 8.7 2.4 39 6.4 NNE 32 39 17 21 1019.0 1019.0 0.0
02/06:30am 16.0 9.0 2.1 39 6.3 NNE 28 32 15 17 1018.9 1018.9 0.0
02/06:00am 16.3 9.2 1.6 37 6.6 NNE 28 37 15 20 1018.8 1018.8 0.0
02/05:30am 16.3 9.4 2.3 39 6.4 NNE 28 35 15 19 1018.7 1018.7 0.0
02/05:00am 14.7 9.0 2.6 44 5.4 NNE 22 28 12 15 1018.7 1018.7 0.0
02/04:30am 14.1 8.9 3.3 48 4.9 NNE 20 24 11 13 1018.5 1018.5 0.0
02/04:00am 14.6 9.4 3.7 48 5.0 NNE 20 26 11 14 1018.5 1018.5 0.0
02/03:30am 14.3 8.9 4.3 51 4.7 NNE 22 24 12 13 1018.7 1018.7 0.0
02/03:00am 11.7 7.2 4.4 61 3.3 NNE 17 20 9 11 1019.0 1019.0 0.0
02/02:30am 12.3 7.9 4.8 60 3.5 NNE 17 19 9 10 1019.3 1019.3 0.0
02/02:00am 11.9 7.8 4.2 59 3.5 NE 15 17 8 9 1019.5 1019.5 0.0
02/01:30am 13.0 8.5 4.2 55 4.1 ENE 17 19 9 10 1019.6 1019.6 0.0
02/01:00am 12.4 8.0 4.6 59 3.6 NE 17 20 9 11 1019.5 1019.5 0.0
02/12:30am 12.4 7.5 3.9 56 3.9 ENE 19 20 10 11 1019.8 1019.9 0.0
02/12:00am 12.2 7.2 3.7 56 3.8 ENE 19 19 10 10 1020.1 1020.2 0.0
 
Date/Time
EST
Temp
°C
App
Temp
°C
Dew
Point
Rel
Hum
%
Delta-T
°C
Wind Press
QNH
hPa
Press
MSL
hPa
Rain
since 9 am
mm
Dir
 
Spd
km/h
Gust
km/h
Spd
kts
Gust
kts
01/11:30pm 12.9 8.4 4.1 55 4.0 NE 17 19 9 10 1020.2 1020.3 0.0
01/11:00pm 12.3 7.8 4.0 57 3.8 NE 17 19 9 10 1020.4 1020.5 0.0
01/10:30pm 12.2 7.7 4.2 58 3.7 NE 17 19 9 10 1020.5 1020.6 0.0
01/10:00pm 12.0 7.6 4.7 61 3.4 NE 17 17 9 9 1020.6 1020.7 0.0
01/09:30pm 12.3 8.1 5.5 63 3.2 NE 17 19 9 10 1020.9 1020.9 0.0
01/09:00pm 11.6 7.4 5.9 68 2.7 NE 17 17 9 9 1020.9 1020.9 0.0
01/08:30pm 11.4 7.2 5.5 67 2.8 NE 17 17 9 9 1021.0 1021.0 0.0
01/08:00pm 12.2 8.9 6.3 67 2.8 NE 13 15 7 8 1021.1 1021.1 0.0
01/07:30pm 12.5 9.2 6.3 66 3.0 NE 13 15 7 8 1020.9 1020.9 0.0
01/07:00pm 12.5 9.2 6.5 67 2.9 NE 13 15 7 8 1020.5 1020.6 0.0
01/06:30pm 13.6 9.9 6.5 62 3.4 NNE 15 17 8 9 1020.4 1020.5 0.0
01/06:00pm 14.1 10.5 6.7 61 3.6 NNE 15 17 8 9 1020.3 1020.4 0.0
01/05:30pm 15.3 11.7 6.6 56 4.3 N 15 17 8 9 1019.9 1020.0 0.0
01/05:00pm 18.2 14.6 6.7 47 5.8 N 15 17 8 9 1019.8 1019.9 0.0
01/04:30pm 19.9 15.4 6.3 41 6.9 N 19 22 10 12 1019.7 1019.8 0.0
01/04:00pm 20.8 16.6 5.6 37 7.6 NNW 17 22 9 12 1019.8 1019.9 0.0
01/03:30pm 21.2 16.5 5.9 37 7.7 NNW 20 26 11 14 1019.9 1020.0 0.0
01/03:00pm 21.3 16.1 5.6 36 7.9 NNW 22 30 12 16 1019.9 1020.0 0.0
01/02:30pm 21.3 15.5 6.4 38 7.6 N 26 30 14 16 1020.0 1020.1 0.0
01/02:00pm 21.4 15.9 5.7 36 7.9 NNW 24 32 13 17 1020.3 1020.4 0.0
01/01:30pm 21.4 15.7 4.9 34 8.2 NNW 24 33 13 18 1020.5 1020.6 0.0
01/01:00pm 21.4 15.8 5.3 35 8.0 NNW 24 32 13 17 1020.9 1020.9 0.0
01/12:30pm 21.2 15.2 3.4 31 8.6 NNW 24 32 13 17 1021.3 1021.3 0.0
01/12:00pm 20.7 14.3 5.1 36 7.7 N 28 35 15 19 1021.5 1021.5 0.0
01/11:30am 20.2 14.2 5.1 37 7.5 N 26 33 14 18 1022.0 1022.0 0.0
01/11:00am 19.9 14.5 4.4 36 7.5 N 22 33 12 18 1022.4 1022.4 0.0
01/10:30am 19.5 14.4 5.9 41 6.8 N 22 30 12 16 1022.7 1022.7 0.0
01/10:00am 19.1 13.7 6.2 43 6.4 N 24 30 13 16 1022.7 1022.7 0.0
01/09:30am 14.4 12.8 8.8 69 2.9 SW 7 9 4 5 1022.7 1022.9 0.0
01/09:00am 11.6 11.0 7.5 76 2.0 CALM 0 0 0 0 1022.6 1022.8 0.0
01/08:30am 9.1 7.2 6.9 86 1.0 SSW 6 9 3 5 1022.7 1022.9 0.0
01/08:00am 6.4 5.2 4.6 88 0.8 CALM 0 0 0 0 1022.4 1022.6 0.0
01/07:30am 4.4 1.5 2.6 88 0.7 SE 7 7 4 4 1022.1 1022.2 0.0
01/07:00am 3.5 1.4 1.5 87 0.8 ENE 2 6 1 3 1021.7 1021.8 0.0
01/06:30am 3.7 2.0 1.7 87 0.8 CALM 0 9 0 5 1021.5 1021.6 0.0
01/06:00am 3.9 2.2 1.9 87 0.8 CALM 0 0 0 0 1021.4 1021.5 0.0
01/05:30am 4.2 2.6 2.4 88 0.7 CALM 0 0 0 0 1021.3 1021.4 0.0
01/05:00am 4.2 2.6 2.4 88 0.7 CALM 0 0 0 0 1021.3 1021.4 0.0
01/04:30am 4.2 2.6 2.4 88 0.7 CALM 0 0 0 0 1021.3 1021.4 0.0
01/04:00am 3.4 1.6 1.4 87 0.8 CALM 0 6 0 3 1021.3 1021.4 0.0
01/03:30am 3.8 2.1 1.7 86 0.8 CALM 0 0 0 0 1021.3 1021.4 0.0
01/03:00am 4.3 1.5 2.2 86 0.8 ENE 6 7 3 4 1021.2 1021.3 0.0
01/02:30am 4.5 2.9 2.2 85 0.9 CALM 0 0 0 0 1021.6 1021.7 0.0
01/02:00am 5.1 3.6 2.8 85 0.9 CALM 0 0 0 0 1022.0 1022.1 0.0
01/01:30am 5.6 4.2 3.3 85 1.0 CALM 0 0 0 0 1022.4 1022.6 0.0
01/01:00am 5.7 4.3 3.4 85 1.0 CALM 0 0 0 0 1022.5 1022.7 0.0
01/12:30am 5.8 4.4 3.3 84 1.1 CALM 0 0 0 0 1022.6 1022.8 0.0
01/12:00am 6.0 4.5 3.2 82 1.2 CALM 0 0 0 0 1022.9 1023.1 0.0
 
Date/Time
EST
Temp
°C
App
Temp
°C
Dew
Point
Rel
Hum
%
Delta-T
°C
Wind Press
QNH
hPa
Press
MSL
hPa
Rain
since 9 am
mm
Dir
 
Spd
km/h
Gust
km/h
Spd
kts
Gust
kts
31/11:30pm 6.4 5.0 3.6 82 1.2 CALM 0 6 0 3 1023.0 1023.2 0.0
31/11:00pm 6.4 4.9 3.0 79 1.4 CALM 0 0 0 0 1023.0 1023.2 0.0
31/10:30pm 7.8 6.1 3.8 76 1.7 E 2 6 1 3 1022.9 1023.1 0.0
31/10:00pm 9.0 6.2 3.2 67 2.5 ENE 7 11 4 6 1022.8 1023.0 0.0
31/09:30pm 10.5 6.7 4.0 64 2.9 ENE 13 17 7 9 1022.6 1022.8 0.0
31/09:00pm 11.3 7.2 4.3 62 3.2 ENE 15 17 8 9 1022.5 1022.7 0.0
31/08:30pm 10.7 6.6 4.4 65 2.9 ENE 15 17 8 9 1022.4 1022.6 0.0
31/08:00pm 11.0 6.9 4.5 64 2.9 ENE 15 17 8 9 1022.2 1022.4 0.0
31/07:30pm 11.7 7.7 4.9 63 3.1 ENE 15 15 8 8 1022.4 1022.6 0.0
31/07:00pm 11.7 8.2 5.3 65 3.0 ENE 13 17 7 9 1022.2 1022.4 0.0
31/06:30pm 12.3 9.1 5.2 62 3.3 NE 11 13 6 7 1021.8 1021.9 0.0
31/06:00pm 13.0 9.9 5.4 60 3.6 NNE 11 11 6 6 1021.5 1021.6 0.0
31/05:30pm 14.2 11.4 5.3 55 4.2 N 9 9 5 5 1021.5 1021.6 0.0
31/05:00pm 16.2 13.2 5.8 50 5.1 N 11 15 6 8 1021.4 1021.5 0.0
31/04:30pm 18.1 14.5 5.0 42 6.4 N 13 20 7 11 1021.1 1021.2 0.0
31/04:00pm 18.8 15.1 4.2 38 7.0 N 13 20 7 11 1021.0 1021.1 0.0
31/03:30pm 19.2 15.2 4.9 39 7.0 NNW 15 20 8 11 1021.2 1021.3 0.0
31/03:00pm 19.3 15.2 4.6 38 7.1 NNW 15 22 8 12 1021.6 1021.7 0.0
31/02:30pm 19.3 15.7 5.0 39 7.0 NNW 13 19 7 10 1021.6 1021.7 0.0
31/02:00pm 19.0 14.7 3.2 35 7.4 NNW 15 22 8 12 1021.8 1021.9 0.0
31/01:30pm 19.0 15.0 4.7 39 7.0 NNW 15 22 8 12 1021.8 1021.9 0.0
31/01:00pm 18.6 14.4 5.5 42 6.4 NNW 17 22 9 12 1022.3 1022.5 0.0
31/12:30pm 18.1 13.7 4.7 41 6.5 NNW 17 24 9 13 1022.6 1022.8 0.0
31/12:00pm 17.7 13.5 5.6 45 5.9 NNW 17 26 9 14 1023.1 1023.3 0.0
31/11:30am 17.2 12.6 5.5 46 5.7 NNW 19 24 10 13 1023.6 1023.8 0.0
31/11:00am 16.6 11.9 5.3 47 5.4 NNW 19 24 10 13 1023.8 1024.0 0.0
31/10:30am 16.3 10.9 4.7 46 5.5 NNW 22 30 12 16 1023.8 1024.0 0.0
31/10:00am 16.0 10.3 5.0 48 5.2 NNW 24 32 13 17 1023.9 1024.1 0.0
31/09:30am 15.6 10.0 5.2 50 5.0 NNW 24 32 13 17 1023.8 1024.0 0.0
31/09:00am 14.9 10.9 4.9 51 4.7 N 15 26 8 14 1023.7 1023.9 0.0
31/08:30am 13.6 8.8 4.5 54 4.2 N 19 26 10 14 1023.5 1023.7 0.0
31/08:00am 13.3 9.0 5.2 58 3.8 N 17 24 9 13 1023.4 1023.6 0.0
31/07:30am 9.3 6.6 5.7 78 1.7 NE 9 13 5 7 1023.1 1023.3 0.0
31/07:00am 4.4 2.7 1.8 83 1.0 CALM 0 0 0 0 1022.9 1023.1 0.0
31/06:30am 5.0 1.9 1.5 78 1.4 ENE 7 9 4 5 1022.6 1022.8 0.0
31/06:00am 4.8 1.9 1.5 79 1.3 NNE 6 9 3 5 1022.3 1022.5 0.0
31/05:30am 6.2 3.6 1.1 70 2.1 E 4 9 2 5 1022.1 1022.2 0.0
31/05:00am 9.5 5.7 3.9 68 2.5 NE 13 17 7 9 1021.9 1022.0 0.0
31/04:30am 9.5 5.4 4.3 70 2.3 NE 15 17 8 9 1021.7 1021.8 0.0
31/04:00am 8.8 5.0 3.8 71 2.2 NNE 13 17 7 9 1022.0 1022.1 0.0
31/03:30am 10.0 5.2 4.4 68 2.5 NNE 19 22 10 12 1022.0 1022.1 0.0
31/03:00am 9.3 5.2 4.5 72 2.1 NNE 15 19 8 10 1022.0 1022.1 0.0
31/02:30am 8.5 4.4 4.1 74 1.9 NE 15 19 8 10 1022.1 1022.2 0.0
31/02:00am 9.3 5.2 4.1 70 2.3 NNE 15 17 8 9 1022.4 1022.6 0.0
31/01:30am 10.3 6.2 4.5 67 2.6 NNE 15 17 8 9 1022.7 1022.9 0.0
31/01:00am 10.9 5.9 4.8 66 2.8 NNE 20 24 11 13 1022.8 1023.0 0.0
31/12:30am 10.4 6.0 4.8 68 2.6 NNE 17 20 9 11 1023.3 1023.5 0.0
31/12:00am 10.3 5.5 4.9 69 2.5 NNE 19 20 10 11 1023.3 1023.5 0.0
 
Date/Time
EST
Temp
°C
App
Temp
°C
Dew
Point
Rel
Hum
%
Delta-T
°C
Wind Press
QNH
hPa
Press
MSL
hPa
Rain
since 9 am
mm
Dir
 
Spd
km/h
Gust
km/h
Spd
kts
Gust
kts
30/11:30pm 10.3 6.3 5.1 70 2.4 NNE 15 17 8 9 1023.4 1023.6 0.0
30/11:00pm 11.4 7.2 5.9 69 2.6 NNE 17 20 9 11 1023.1 1023.3 0.0
30/10:30pm 9.8 5.9 5.2 73 2.1 NE 15 19 8 10 1023.7 1023.9 0.0
30/10:00pm 10.0 6.8 5.2 72 2.2 NNE 11 15 6 8 1024.2 1024.4 0.0
30/09:30pm 9.6 6.4 5.2 74 2.0 N 11 15 6 8 1023.9 1024.1 0.0
30/09:00pm 9.5 6.8 5.5 76 1.8 NNE 9 11 5 6 1023.5 1023.7 0.0
30/08:30pm 8.7 6.4 4.9 77 1.7 NNE 6 9 3 5 1023.6 1023.8 0.0
30/08:00pm 8.3 5.7 4.1 75 1.8 ENE 7 9 4 5 1023.8 1024.0 0.0
30/07:30pm 9.7 6.4 4.5 70 2.3 ENE 11 13 6 7 1024.1 1024.3 0.0
30/07:00pm 10.1 6.4 4.5 68 2.5 NE 13 13 7 7 1023.9 1024.1 0.0
30/06:30pm 10.4 7.4 4.1 65 2.8 NNE 9 9 5 5 1023.4 1023.6 0.0
30/06:00pm 11.7 9.4 4.7 62 3.2 N 6 7 3 4 1023.2 1023.4 0.0
30/05:30pm 12.0 8.3 4.5 60 3.4 N 13 13 7 7 1023.3 1023.5 0.0
30/05:00pm 15.0 11.4 5.0 51 4.7 N 13 15 7 8 1023.6 1023.8 0.0
30/04:30pm 16.7 12.3 5.0 46 5.6 NNW 17 22 9 12 1023.8 1024.0 0.0

Other Formats:

Comma delimited format used in spreadsheet applications
http://www.bom.gov.au/fwo/IDN60801/IDN60801.95734.axf

JavaScript Object Notation format (JSON) in row-major order
http://www.bom.gov.au/fwo/IDN60801/IDN60801.95734.json